Nearby METAR Reports

 

KLOT - Romeoville/Chi, Illinois, USA
Distance from station: N 3mi, 5km
Updated: Thu, 24-Jan-2019 2:55am CST
Clear
Clear
 Wind from W
Wind: W 5 mph , 7 km/h
Temperature: 12°F , -11°C
Wind Chill: 4°F , -16°C
Dew Point: 10°F , -12°C
Humidity: 92%
Barometer: 29.84 inHg , 1010.5 hPa
Clouds: Clear
Visibility: 10 miles , 16 km
2019/01/24 08:55 KLOT 240855Z AUTO 28004KT 10SM CLR M11/M12 A2984 RMK AO2 T11101125
KJOT - Joliet, Illinois, USA
Distance from station: WSW 5mi, 7km
Updated: Thu, 24-Jan-2019 2:35am CST
Clear
Clear
 Wind from calm
Wind: Calm
Temperature: 14°F , -10°C
Dew Point: 10°F , -12°C
Humidity: 85%
Barometer: 29.85 inHg , 1010.8 hPa
Clouds: Clear
Visibility: 10 miles , 16 km
2019/01/24 08:35 KJOT 240835Z AUTO 00000KT 10SM CLR M10/M12 A2985 RMK AO2 T11021119
 
KC09 - Morris-Washburn, Illinois, USA
Distance from station: WSW 18mi, 29km
Updated: Thu, 24-Jan-2019 2:55am CST
Clear
Clear
 Wind from W
Wind: W 7 mph , 11 km/h
Temperature: 10°F , -12°C
Wind Chill: -1°F , -18°C
Dew Point: 7°F , -14°C
Humidity: 85%
Barometer: 29.85 inHg , 1010.8 hPa
Clouds: Clear
Visibility: 10 miles , 16 km
2019/01/24 08:55 KC09 240855Z AUTO 28006KT 10SM CLR M12/M14 A2985 RMK AO2 T11201136
KARR - Chicago/Aurora, Illinois, USA
Distance from station: NW 24mi, 39km
Updated: Thu, 24-Jan-2019 2:52am CST
Mist, Clear
Mist, Clear
 Wind from WNW
Wind: WNW 6 mph , 9 km/h
Temperature: 5°F , -15°C
Wind Chill: -6°F , -21°C
Dew Point: 1°F , -17°C
Humidity: 85%
Barometer: 29.84 inHg , 1010.5 hPa
Summary: Mist
Clouds: Clear
Visibility: 5 miles , 8 km
2019/01/24 08:52 KARR 240852Z AUTO 29005KT 5SM BR CLR M15/M17 A2984 RMK AO2 SLP116 I3000 T11501172 58009 TSNO $
 
KMDW - Chicago, Illinois, USA
Distance from station: NE 25mi, 39km
Updated: Thu, 24-Jan-2019 2:53am CST
Clear
Clear
 Wind from W
Wind: W 7 mph , 11 km/h
Temperature: 16°F , -9°C
Wind Chill: 6°F , -14°C
Dew Point: 12°F , -11°C
Humidity: 86%
Barometer: 29.84 inHg , 1010.5 hPa
Clouds: Clear
Visibility: 9 miles , 14 km
2019/01/24 08:53 KMDW 240853Z 27006KT 9SM CLR M09/M11 A2984 RMK AO2 SLP121 T10891111 58005 $
KDPA - Chicago/Dupage, Illinois, USA
Distance from station: NNW 26mi, 42km
Updated: Thu, 24-Jan-2019 2:52am CST
Mist, Clear
Mist, Clear
 Wind from WNW
Wind: WNW 3 mph , 6 km/h
Temperature: 9°F , -13°C
Dew Point: 7°F , -14°C
Humidity: 92%
Barometer: 29.82 inHg , 1009.8 hPa
Summary: Mist
Clouds: Clear
Visibility: 4 miles , 6 km
2019/01/24 08:52 KDPA 240852Z 29003KT 4SM BR CLR M13/M14 A2982 RMK AO2 SLP112 T11281144 58009
 
KIGQ - Chicago/Lansing, Illinois, USA
Distance from station: E 30mi, 48km
Updated: Thu, 24-Jan-2019 2:55am CST
Partly cloudy
Partly cloudy
 Wind from calm
Wind: Calm
Temperature: 19°F , -7°C
Dew Point: 14°F , -10°C
Humidity: 79%
Barometer: 29.84 inHg , 1010.5 hPa
Clouds: Partly cloudy
Visibility: 10 miles , 16 km
Cloud details: Partly cloudy 1900 ft
2019/01/24 08:55 KIGQ 240855Z AUTO 00000KT 10SM SCT019 M07/M10 A2984 RMK AO2 T10711100
KORD - Chicago O'hare, Illinois, USA
Distance from station: NNE 31mi, 50km
Updated: Thu, 24-Jan-2019 2:51am CST
Clear
Clear
 Wind from W
Wind: W 5 mph , 7 km/h
Temperature: 12°F , -11°C
Wind Chill: 4°F , -16°C
Dew Point: 9°F , -13°C
Humidity: 85%
Barometer: 29.82 inHg , 1009.8 hPa
Clouds: Clear
Visibility: 8 miles , 13 km
2019/01/24 08:51 KORD 240851Z 27004KT 8SM CLR M11/M13 A2982 RMK AO2 SLP108 T11061128 58009
 
KGYY - Gary Regional, Indiana, USA
Distance from station: E 36mi, 58km
Updated: Thu, 24-Jan-2019 2:55am CST
Overcast
Overcast
 Wind from WNW
Wind: WNW 7 mph , 11 km/h
Temperature: 23°F , -5°C
Wind Chill: 15°F , -9°C
Dew Point: 16°F , -9°C
Humidity: 74%
Barometer: 29.85 inHg , 1010.8 hPa
Clouds: Overcast
Visibility: 10 miles , 16 km
Cloud details: Overcast 1900 ft
2019/01/24 08:55 KGYY 240855Z AUTO 29006KT 10SM OVC019 M05/M09 A2985 RMK AO2 60001 T10531094
KIKK - Kankakee, Illinois, USA
Distance from station: SSE 36mi, 58km
Updated: Thu, 24-Jan-2019 2:55am CST
Clear
Clear
 Wind from calm
Wind: Calm
Temperature: 14°F , -10°C
Dew Point: 10°F , -12°C
Humidity: 85%
Barometer: 29.87 inHg , 1011.5 hPa
Clouds: Clear
Visibility: 10 miles , 16 km
2019/01/24 08:55 KIKK 240855Z AUTO 00000KT 10SM CLR M10/M12 A2987 RMK AO2 T10981118
 
KDKB - De Kalb, Illinois, USA
Distance from station: NW 40mi, 65km
Updated: Thu, 24-Jan-2019 2:55am CST
Clear
Clear
 Wind from W
Wind: W 3 mph , 6 km/h
Temperature: 5°F , -15°C
Dew Point: 3°F , -16°C
Humidity: 92%
Barometer: 29.82 inHg , 1009.8 hPa
Clouds: Clear
Visibility: 7 miles , 11 km
2019/01/24 08:55 KDKB 240855Z AUTO 27003KT 7SM CLR M15/M16 A2982 RMK AO2 T11471158
KPWK - Palwaukee, Illinois, USA
Distance from station: NNE 41mi, 65km
Updated: Thu, 24-Jan-2019 2:52am CST
Clear
Clear
 Wind from W
Wind: W 3 mph , 6 km/h
Temperature: 14°F , -10°C
Dew Point: 9°F , -13°C
Humidity: 79%
Barometer: 29.84 inHg , 1010.5 hPa
Clouds: Clear
Visibility: 8 miles , 13 km
2019/01/24 08:52 KPWK 240852Z AUTO 28003KT 8SM CLR M10/M13 A2984 RMK AO2 SLP115 T11001133 58007